Accueil
METAR-TAF:

METAR-TAF

Aéroports :

Base aérienne 133 Nancy-Ochey

Nancy, France

latitude: 48-35N, longitude: 005-58E, altitude: 336 m

Observation

Le bulletin a été fait il y a 26 minutes, à 05:30 UTC
Vent 5 kt de nord
Température -5°C
Humidité 86%
Pression 1020 hPa
Visibilité: 5000 m
brume

METAR: LFSO 080530Z AUTO 36005KT 5000 BR NSC M05/M07 Q1020

Heure: 06:56 (05:56 UTC)

Prévision

Le bulletin a été fait il y a 10 minutes, à 05:46 UTC
Prévision valable du 08 à 05 UTC au 09 à 03 UTC
Vent 7 kt de nord/nord-est
Visibilité 10 km ou plus
pas de nuages en-dessous de 1500 mètres et pas de cumulonimbus.
Temporairement
du 08 à 05 UTC au 08 à 09 UTC
Visibilité: 4000 m
brume

TAF: LFSO 080546Z 0805/0903 02007KT CAVOK TEMPO 0805/0809 4000 BR

Observations et prévisions météorologiques de plus de 4000 aéroports (messages METAR et TAF).

Les stations disponibles sont représentées par des disques jaunes et rouges sur la carte.

Passer la souris dessus pour voir le nom de la station.

Cliquer dessus pour voir les observations et prévisions météorologiques.

Pour changer de carte: cliquez sur les boutons verts avec une croix noire pour zoomer, sur le bouton vert avec un tiret pour effectuer un zoom arrière, ou sur les flèches vertes pour les cartes adjacentes.


METAR-TAF: